Meteo Giornale » Osservazioni meteo Italia » Venezia-Tessera

ore: 07:50 - Osservazioni Meteo Venezia-Tessera
Lat. 45° 30' N Lon. 12° 20' E Alt. 2 metri s.l.m.

sereno Europe/Rome

12 °C

Sereno

Temp. 24 Ore

11 °C

22 °C

Nord/Nord-Est

7.4 Km/h

Dew point 8 °C

Umidità 76 %

Visibilità  10 Km

Il sole sorge alle ore 06:12

Il sole tramonta alle ore 20:05

Data e Ora Cielo e Fenomeni T °C DP °C Um. % Pres. hPa Vis. km Vento km/h
Oggi h: 07:50 sereno Sereno 12 8 76 1022 10 N/NE 7.4
Oggi h: 07:20 sereno Sereno 11 8 81 1022 10 N 5.5
Oggi h: 06:50 sereno Sereno 11 7 76 1022 10 N/NE 9.3
Oggi h: 06:20 sereno Sereno 11 7 76 1022 10 N/NE 7.4
Oggi h: 05:50 sereno Sereno 11 7 76 1022 10 N 7.4
Oggi h: 05:20 sereno Sereno 11 6 71 1022 10 N 7.4
Oggi h: 04:50 sereno Sereno 12 6 66 1022 10 N 7.4
Oggi h: 04:20 sereno Sereno 12 6 66 1023 10 N 5.5
Oggi h: 03:50 sereno Sereno 13 7 66 1023 10 N 3.7
Oggi h: 03:20 sereno Sereno 13 7 66 1023 10 E/NE 7.4
Oggi h: 02:50 sereno Sereno 13 6 62 1023 10 N/NE 9.3
Oggi h: 02:20 sereno Sereno 14 9 71 1023 10 N 3.7
Oggi h: 01:50 sereno Sereno 15 5 51 1024 10 N 3.7
Oggi h: 01:20 sereno Sereno 15 6 54 1024 10 N 5.5
Oggi h: 00:50 sereno Sereno 15 7 58 1024 10 N 5.5
Oggi h: 00:20 sereno Sereno 16 5 47 1024 10 N 5.5
Ieri h: 23:50 sereno Sereno 17 5 45 1024 10 O/SO 9.3
Ieri h: 23:20 sereno Sereno 16 6 51 1024 10 O/SO 7.4
Ieri h: 22:50 sereno Sereno 16 5 47 1024 10 O/SO 11.1
Ieri h: 22:20 sereno Sereno 16 7 55 1024 10 O 7.4
Ieri h: 21:50 sereno Sereno 17 7 51 1024 10 O/SO 11.1
Ieri h: 21:20 sereno Sereno 16 10 67 1024 10 O/SO 9.3
Ieri h: 20:50 sereno Sereno 18 9 55 1024 10 O/SO 7.4
Ieri h: 20:20 sereno Sereno 18 9 55 1023 10 O/SO 7.4
Ieri h: 19:50 sereno Sereno 19 8 48 1024 10 SO 14.8
Ieri h: 19:20 sereno Sereno 20 7 42 1023 10 S/SO 13
Ieri h: 18:50 sereno Sereno 21 7 40 1024 10 S/SO 14.8
Ieri h: 18:20 sereno Sereno 21 6 37 1024 10 SO 14.8
Ieri h: 17:50 sereno Sereno 21 7 40 1024 10 SO 14.8
Ieri h: 17:20 sereno Sereno 22 5 32 1024 10 S/SO 14.8
Ieri h: 16:50 sereno Sereno 22 6 35 1025 10 S/SO 9.3
Ieri h: 16:20 sereno Sereno 22 6 35 1025 10 S/SO 9.3
Ieri h: 15:20 sereno Sereno 22 5 32 1026 10 S 7.4
Ieri h: 14:50 sereno Sereno 21 6 37 1026 10 S 7.4
Ieri h: 14:20 sereno Sereno 22 8 40 1026 10 S/SE 9.3
Ieri h: 13:50 sereno Sereno 22 8 40 1027 10 S/SE 9.3
Ieri h: 13:20 sereno Sereno 22 6 35 1027 10 E/SE 9.3
Ieri h: 12:50 sereno Sereno 22 7 37 1027 10 E/SE 11.1
Ieri h: 12:20 sereno Sereno 21 6 37 1027 10 E 9.3
Ieri h: 11:50 sereno Sereno 21 7 40 1027 10 E 9.3
Ieri h: 11:20 sereno Sereno 20 8 45 1027 10 E 11.1
Ieri h: 10:50 sereno Sereno 19 8 48 1027 10 N 5.5
Ieri h: 10:20 sereno Sereno 18 8 51 1027 10 N 5.5
Ieri h: 09:50 sereno Sereno 17 8 55 1028 10 E/NE 7.4
Ieri h: 09:20 sereno Sereno 15 8 62 1028 10 E/NE 9.3
Ieri h: 08:50 sereno Sereno 14 8 67 1028 10 E/NE 9.3